Time;durP1;ratioP1;P1;durP2;ratioP2;P2;SDS_P1;SDS_P2;PMS_P1;PMS_P2;Temp;Humidity;BMP_temperature;BMP_pressure;BME280_temperature;BME280_humidity;BME280_pressure;Samples;Min_cycle;Max_cycle;Signal;HPM_P1;HPM_P2
2023/02/07 00:01:16;;;;;;;0.00;0.00;;;2.30;99.90;;;;;;5024113;28;20718;-80
2023/02/07 00:03:43;;;;;;;0.10;0.10;;;2.30;99.90;;;;;;5022967;28;20210;-82
2023/02/07 00:06:18;;;;;;;0.10;0.10;;;2.20;99.90;;;;;;5020485;28;20685;-81
2023/02/07 00:08:44;;;;;;;0.10;0.10;;;2.20;99.90;;;;;;5025580;28;20188;-81
2023/02/07 00:11:15;;;;;;;0.10;0.10;;;2.30;99.90;;;;;;5025662;28;20216;-81
2023/02/07 00:13:41;;;;;;;0.00;0.00;;;2.20;99.90;;;;;;5017838;28;20189;-84
2023/02/07 00:16:07;;;;;;;0.00;0.00;;;2.30;99.90;;;;;;5024641;28;20259;-81
2023/02/07 00:18:33;;;;;;;0.00;0.00;;;2.20;99.90;;;;;;5024285;28;20189;-81
2023/02/07 00:21:08;;;;;;;0.10;0.10;;;2.20;99.90;;;;;;5024175;28;20785;-83
2023/02/07 00:23:35;;;;;;;0.10;0.10;;;2.20;99.90;;;;;;5025576;28;20673;-81
2023/02/07 00:26:01;;;;;;;0.10;0.10;;;2.20;99.90;;;;;;5022017;28;20550;-82
2023/02/07 00:28:26;;;;;;;0.10;0.10;;;2.10;99.90;;;;;;5025794;28;20212;-82
2023/02/07 00:31:26;;;;;;;0.10;0.10;;;2.10;99.90;;;;;;5023924;28;20286;-82
2023/02/07 00:33:55;;;;;;;0.10;0.10;;;2.10;99.90;;;;;;4994567;28;20690;-81
2023/02/07 00:36:23;;;;;;;0.00;0.00;;;2.10;99.90;;;;;;5023822;28;20189;-81
2023/02/07 00:38:49;;;;;;;0.10;0.10;;;2.00;99.90;;;;;;5024565;28;20188;-81
2023/02/07 00:41:17;;;;;;;0.03;0.03;;;2.00;99.90;;;;;;5025411;28;20217;-83
2023/02/07 00:43:43;;;;;;;0.10;0.10;;;2.00;99.90;;;;;;5019700;28;20188;-81
2023/02/07 00:46:09;;;;;;;0.10;0.10;;;2.00;99.90;;;;;;5023890;28;20553;-82
2023/02/07 00:48:35;;;;;;;0.10;0.10;;;2.00;99.90;;;;;;5022070;28;20218;-82
2023/02/07 00:51:01;;;;;;;0.10;0.10;;;1.90;99.90;;;;;;5025628;28;20209;-80
2023/02/07 00:53:28;;;;;;;0.00;0.00;;;1.80;99.90;;;;;;5020562;28;20282;-82
2023/02/07 00:55:54;;;;;;;2.27;2.07;;;1.80;99.90;;;;;;5024316;28;20279;-81
2023/02/07 00:58:20;;;;;;;0.00;0.00;;;1.70;99.90;;;;;;5023906;28;20289;-82
2023/02/07 01:00:46;;;;;;;0.10;0.10;;;1.70;99.90;;;;;;5023303;28;20220;-82
2023/02/07 01:03:12;;;;;;;0.10;0.10;;;1.60;99.90;;;;;;5024115;28;20612;-81
2023/02/07 01:05:38;;;;;;;0.10;0.10;;;1.60;99.90;;;;;;5028314;28;20192;-81
2023/02/07 01:08:03;;;;;;;0.10;0.10;;;1.60;99.90;;;;;;5027545;28;20196;-83
2023/02/07 01:10:29;;;;;;;0.10;0.10;;;1.60;99.90;;;;;;5027671;28;20209;-80
2023/02/07 01:12:54;;;;;;;0.10;0.10;;;1.60;99.90;;;;;;5027985;28;20283;-82
2023/02/07 01:15:21;;;;;;;0.10;0.10;;;1.60;99.90;;;;;;5027669;28;20262;-81
2023/02/07 01:17:46;;;;;;;0.00;0.00;;;1.60;99.90;;;;;;5027385;28;20191;-82
2023/02/07 01:20:12;;;;;;;0.10;0.10;;;1.60;99.90;;;;;;5027528;28;20186;-81
2023/02/07 01:22:38;;;;;;;0.00;0.00;;;1.50;99.90;;;;;;5026894;28;20219;-82
2023/02/07 01:25:05;;;;;;;0.10;0.10;;;1.60;99.90;;;;;;5027540;28;20200;-83
2023/02/07 01:27:31;;;;;;;0.10;0.10;;;1.60;99.90;;;;;;5028547;28;20199;-81
2023/02/07 01:29:57;;;;;;;0.10;0.10;;;1.60;99.90;;;;;;5028696;28;20282;-82
2023/02/07 01:32:23;;;;;;;0.10;0.10;;;1.50;99.90;;;;;;5028547;28;20773;-81
2023/02/07 01:34:48;;;;;;;0.10;0.10;;;1.50;99.90;;;;;;5027093;28;20658;-81
2023/02/07 01:37:14;;;;;;;0.10;0.10;;;1.50;99.90;;;;;;5026444;28;20281;-82
2023/02/07 01:39:39;;;;;;;0.10;0.10;;;1.50;99.90;;;;;;5027963;28;20194;-81
2023/02/07 01:42:05;;;;;;;5.43;5.20;;;1.50;99.90;;;;;;5027827;28;20211;-81
2023/02/07 01:44:36;;;;;;;0.03;0.03;;;1.50;99.90;;;;;;5027049;28;20183;-81
2023/02/07 01:47:02;;;;;;;0.10;0.10;;;1.50;99.90;;;;;;5027729;28;20184;-81
2023/02/07 01:49:32;;;;;;;0.10;0.10;;;1.50;99.90;;;;;;5027066;28;20299;-81
2023/02/07 01:52:05;;;;;;;0.00;0.00;;;1.50;99.90;;;;;;5027795;28;20193;-81
2023/02/07 01:54:33;;;;;;;0.10;0.10;;;1.60;99.90;;;;;;5026172;28;20719;-82
2023/02/07 01:57:06;;;;;;;0.10;0.10;;;1.70;99.90;;;;;;5026176;28;20204;-82
2023/02/07 01:59:35;;;;;;;0.10;0.10;;;1.80;99.90;;;;;;5026636;28;20190;-81
2023/02/07 02:02:03;;;;;;;0.00;0.00;;;1.80;99.90;;;;;;5022258;28;20208;-81
2023/02/07 02:04:29;;;;;;;0.10;0.10;;;1.90;99.90;;;;;;5025828;28;20643;-81
2023/02/07 02:06:55;;;;;;;0.10;0.10;;;1.90;99.90;;;;;;5021431;28;20196;-81
2023/02/07 02:09:21;;;;;;;0.00;0.00;;;1.90;99.90;;;;;;5025431;28;20185;-82
2023/02/07 02:12:25;;;;;;;0.10;0.10;;;2.00;99.90;;;;;;5024378;28;20212;-81
2023/02/07 02:15:06;;;;;;;0.00;0.00;;;2.00;99.90;;;;;;5026226;28;20185;-82
2023/02/07 02:18:01;;;;;;;0.10;0.10;;;2.10;99.90;;;;;;5026884;28;20931;-81
2023/02/07 02:20:42;;;;;;;0.10;0.10;;;2.10;99.90;;;;;;5025036;28;20203;-81
2023/02/07 02:23:23;;;;;;;0.10;0.10;;;2.10;99.90;;;;;;5025929;28;20210;-81
2023/02/07 02:25:56;;;;;;;0.10;0.10;;;2.10;99.90;;;;;;5026786;28;20183;-81
2023/02/07 02:28:51;;;;;;;0.10;0.10;;;2.10;99.90;;;;;;5027275;28;20187;-82
2023/02/07 02:31:51;;;;;;;0.10;0.10;;;2.10;99.90;;;;;;5022367;28;20217;-82
2023/02/07 02:34:31;;;;;;;0.10;0.10;;;2.00;99.90;;;;;;5024403;28;20689;-81
2023/02/07 02:37:02;;;;;;;0.10;0.10;;;1.90;99.90;;;;;;5026243;28;20188;-81
2023/02/07 02:39:46;;;;;;;0.10;0.10;;;1.80;99.90;;;;;;5026744;28;20181;-81
2023/02/07 02:42:44;;;;;;;0.10;0.10;;;1.80;99.90;;;;;;5026709;28;21281;-82
2023/02/07 02:45:26;;;;;;;0.10;0.10;;;1.70;99.90;;;;;;5025449;28;20187;-81
2023/02/07 02:47:52;;;;;;;0.10;0.10;;;1.60;99.90;;;;;;5025481;28;20192;-82
2023/02/07 02:50:21;;;;;;;0.00;0.00;;;1.60;99.90;;;;;;5025206;28;20188;-83
2023/02/07 02:52:47;;;;;;;0.10;0.10;;;1.50;99.90;;;;;;5025490;28;20189;-82
2023/02/07 02:55:13;;;;;;;0.10;0.10;;;1.50;99.90;;;;;;5024972;28;20841;-82
2023/02/07 02:57:59;;;;;;;0.10;0.10;;;1.50;99.90;;;;;;5025631;28;20184;-82
2023/02/07 03:00:36;;;;;;;0.10;0.10;;;1.40;99.90;;;;;;5024109;28;20228;-82
2023/02/07 03:03:29;;;;;;;0.10;0.10;;;1.30;99.90;;;;;;5026449;28;20177;-80
2023/02/07 03:06:08;;;;;;;0.10;0.10;;;1.20;99.90;;;;;;5025301;28;20197;-82
2023/02/07 03:09:03;;;;;;;0.10;0.10;;;1.20;99.90;;;;;;5024933;28;20672;-82
2023/02/07 03:11:31;;;;;;;0.10;0.10;;;1.20;99.90;;;;;;5025219;28;20349;-81
2023/02/07 03:14:27;;;;;;;4.00;3.77;;;1.20;99.90;;;;;;5023801;28;20191;-81
2023/02/07 03:17:24;;;;;;;0.10;0.10;;;1.10;99.90;;;;;;5024776;28;20187;-81
2023/02/07 03:20:02;;;;;;;0.00;0.00;;;1.10;99.90;;;;;;5024929;28;20275;-83
2023/02/07 03:22:29;;;;;;;0.10;0.10;;;1.00;99.90;;;;;;5026369;28;20281;-81
2023/02/07 03:24:57;;;;;;;0.10;0.10;;;1.00;99.90;;;;;;5025370;28;20212;-82
2023/02/07 03:27:26;;;;;;;0.10;0.10;;;1.00;99.90;;;;;;5025430;28;20207;-81
2023/02/07 03:29:56;;;;;;;0.10;0.10;;;1.00;99.90;;;;;;5023778;28;20215;-81
2023/02/07 03:32:25;;;;;;;0.10;0.10;;;0.90;99.90;;;;;;5019258;28;20200;-82
2023/02/07 03:35:13;;;;;;;0.10;0.10;;;0.90;99.90;;;;;;5024958;28;20198;-80
2023/02/07 03:37:46;;;;;;;0.03;0.03;;;0.90;99.90;;;;;;5025040;28;20265;-81
2023/02/07 03:40:12;;;;;;;0.00;0.00;;;0.80;99.90;;;;;;5019476;28;20273;-80
2023/02/07 03:42:58;;;;;;;0.10;0.10;;;0.80;99.90;;;;;;5025114;28;20210;-82
2023/02/07 03:45:24;;;;;;;0.10;0.10;;;0.80;99.90;;;;;;5023751;28;20190;-82
2023/02/07 03:47:49;;;;;;;0.10;0.10;;;0.80;99.90;;;;;;5024420;28;20551;-82
2023/02/07 03:50:16;;;;;;;0.10;0.10;;;0.70;99.90;;;;;;5025305;28;20187;-80
2023/02/07 03:52:42;;;;;;;0.13;0.13;;;0.70;99.90;;;;;;5024367;28;20190;-81
2023/02/07 03:55:07;;;;;;;0.10;0.10;;;0.70;99.90;;;;;;5022251;28;20186;-81
2023/02/07 03:57:33;;;;;;;0.10;0.10;;;0.70;99.90;;;;;;5024250;28;20188;-82
2023/02/07 03:59:59;;;;;;;0.30;0.30;;;0.70;99.90;;;;;;5024601;28;20624;-82
2023/02/07 04:02:24;;;;;;;0.10;0.10;;;0.60;99.90;;;;;;5024161;28;20206;-81
2023/02/07 04:04:50;;;;;;;0.07;0.07;;;0.50;99.90;;;;;;5024645;28;20180;-82
2023/02/07 04:07:15;;;;;;;0.00;0.00;;;0.50;99.90;;;;;;5024732;28;20174;-81
2023/02/07 04:09:41;;;;;;;0.10;0.10;;;0.40;99.90;;;;;;5023771;28;20242;-81
2023/02/07 04:12:06;;;;;;;0.00;0.00;;;0.40;99.90;;;;;;5023415;28;20207;-82
2023/02/07 04:14:32;;;;;;;0.10;0.10;;;0.40;99.90;;;;;;5023844;28;20184;-81
2023/02/07 04:16:59;;;;;;;0.10;0.10;;;0.30;99.90;;;;;;5024275;28;20608;-82
2023/02/07 04:19:24;;;;;;;0.10;0.10;;;0.30;99.90;;;;;;5020943;28;20583;-81
2023/02/07 04:21:50;;;;;;;0.00;0.00;;;0.30;99.90;;;;;;5021674;28;20209;-82
2023/02/07 04:24:15;;;;;;;0.10;0.10;;;0.30;99.90;;;;;;5022899;28;20186;-81
2023/02/07 04:26:41;;;;;;;0.03;0.03;;;0.20;99.90;;;;;;5022132;28;20668;-80
2023/02/07 04:29:07;;;;;;;0.10;0.10;;;0.10;99.90;;;;;;5025590;28;20187;-81
2023/02/07 04:31:33;;;;;;;0.10;0.10;;;0.10;99.90;;;;;;5021815;28;20217;-81
2023/02/07 04:33:58;;;;;;;0.50;0.50;;;0.10;99.90;;;;;;5024954;28;20202;-81
2023/02/07 04:36:25;;;;;;;0.10;0.10;;;0.10;99.90;;;;;;5021347;28;20211;-81
2023/02/07 04:38:50;;;;;;;0.10;0.10;;;0.10;99.90;;;;;;5026847;28;20179;-80
2023/02/07 04:41:16;;;;;;;0.10;0.10;;;0.00;99.90;;;;;;5029144;28;20272;-81
2023/02/07 04:43:41;;;;;;;0.00;0.00;;;0.00;99.90;;;;;;5026480;28;20214;-83
2023/02/07 04:46:07;;;;;;;0.10;0.10;;;0.00;99.90;;;;;;5027794;28;20269;-83
2023/02/07 04:48:35;;;;;;;0.10;0.10;;;0.00;99.90;;;;;;5026107;28;20273;-81
2023/02/07 04:51:01;;;;;;;0.07;0.07;;;-0.10;99.90;;;;;;5027327;28;20202;-81
2023/02/07 04:53:26;;;;;;;0.00;0.00;;;0.00;99.90;;;;;;5027725;28;20248;-81
2023/02/07 04:55:53;;;;;;;0.03;0.03;;;0.00;99.90;;;;;;5029913;28;20182;-82
2023/02/07 04:58:20;;;;;;;0.10;0.10;;;0.00;99.90;;;;;;5027534;28;20974;-81
2023/02/07 05:00:46;;;;;;;0.10;0.10;;;0.00;99.90;;;;;;5026352;28;20219;-82
2023/02/07 05:03:12;;;;;;;0.10;0.10;;;-0.10;99.90;;;;;;5023191;28;20183;-81
2023/02/07 05:05:39;;;;;;;0.10;0.10;;;-0.10;99.90;;;;;;5025533;28;20183;-82
2023/02/07 05:08:05;;;;;;;0.10;0.10;;;-0.20;99.90;;;;;;5027589;28;20186;-82
2023/02/07 05:10:31;;;;;;;0.00;0.00;;;-0.20;99.90;;;;;;5028080;28;20218;-81
2023/02/07 05:12:56;;;;;;;0.10;0.10;;;-0.30;99.90;;;;;;5027749;28;20178;-81
2023/02/07 05:15:23;;;;;;;0.10;0.10;;;-0.30;99.90;;;;;;5027254;28;20179;-81
2023/02/07 05:17:48;;;;;;;0.10;0.10;;;-0.30;99.90;;;;;;5027238;28;20175;-82
2023/02/07 05:20:14;;;;;;;0.10;0.10;;;-0.30;99.90;;;;;;5026895;28;20178;-81
2023/02/07 05:22:40;;;;;;;0.00;0.00;;;-0.40;99.90;;;;;;5028511;28;20678;-82
2023/02/07 05:25:06;;;;;;;0.10;0.10;;;-0.40;99.90;;;;;;5028659;28;21322;-81
2023/02/07 05:27:32;;;;;;;0.10;0.10;;;-0.40;99.90;;;;;;5027182;28;20242;-82
2023/02/07 05:29:58;;;;;;;0.00;0.00;;;-0.40;99.90;;;;;;5024426;28;20556;-81
2023/02/07 05:35:07;;;;;;;0.10;0.10;;;-0.40;99.90;;;;;;5028649;28;20240;-81
2023/02/07 05:37:33;;;;;;;0.10;0.10;;;-0.30;99.90;;;;;;5028877;28;20198;-83
2023/02/07 05:39:59;;;;;;;0.10;0.10;;;-0.30;99.90;;;;;;5023533;28;20214;-81
2023/02/07 05:42:24;;;;;;;0.10;0.10;;;-0.30;99.90;;;;;;5027232;28;20238;-82
2023/02/07 05:44:50;;;;;;;0.03;0.03;;;-0.40;99.90;;;;;;5027081;28;20647;-81
2023/02/07 05:47:16;;;;;;;0.10;0.10;;;-0.40;99.90;;;;;;5026379;28;20242;-81
2023/02/07 05:49:41;;;;;;;0.10;0.10;;;-0.50;99.90;;;;;;5026492;28;20549;-81
2023/02/07 05:52:08;;;;;;;0.00;0.00;;;-0.50;99.90;;;;;;5024075;28;20691;-82
2023/02/07 05:54:33;;;;;;;0.00;0.00;;;-0.60;99.90;;;;;;5026914;28;20182;-82
2023/02/07 05:56:59;;;;;;;0.10;0.10;;;-0.70;99.90;;;;;;5027119;28;20652;-81
2023/02/07 05:59:24;;;;;;;0.10;0.10;;;-0.70;99.90;;;;;;5025594;28;20180;-81
2023/02/07 06:01:50;;;;;;;0.10;0.10;;;-0.80;99.90;;;;;;5023608;28;20211;-81
2023/02/07 06:04:15;;;;;;;0.10;0.10;;;-0.90;99.90;;;;;;5027095;28;20202;-81
2023/02/07 06:06:41;;;;;;;0.10;0.10;;;-0.90;99.90;;;;;;5026220;28;20187;-81
2023/02/07 06:09:06;;;;;;;0.10;0.10;;;-1.00;99.90;;;;;;5025048;28;20624;-81
2023/02/07 06:11:32;;;;;;;0.00;0.00;;;-0.90;99.90;;;;;;5028159;28;20217;-82
2023/02/07 06:13:57;;;;;;;0.10;0.10;;;-0.90;99.90;;;;;;5026340;28;20182;-81
2023/02/07 06:16:23;;;;;;;0.10;0.10;;;-0.90;99.90;;;;;;5025820;28;20212;-82
2023/02/07 06:18:49;;;;;;;0.10;0.10;;;-0.90;99.90;;;;;;5023597;28;20185;-80
2023/02/07 06:21:15;;;;;;;0.10;0.10;;;-0.80;99.90;;;;;;5027345;28;20207;-81
2023/02/07 06:23:41;;;;;;;0.10;0.10;;;-0.90;99.90;;;;;;5025640;28;20189;-81
2023/02/07 06:26:06;;;;;;;0.00;0.00;;;-0.90;99.90;;;;;;5026908;28;20179;-81
2023/02/07 06:28:32;;;;;;;0.10;0.10;;;-0.90;99.90;;;;;;5026548;28;20338;-81
2023/02/07 06:30:57;;;;;;;0.10;0.10;;;-0.80;99.90;;;;;;5023751;28;20206;-81
2023/02/07 06:33:23;;;;;;;0.10;0.10;;;-0.80;99.90;;;;;;5027010;28;20225;-82
2023/02/07 06:35:48;;;;;;;0.10;0.10;;;-0.90;99.90;;;;;;5026115;28;20186;-80
2023/02/07 06:38:15;;;;;;;0.10;0.10;;;-0.90;99.90;;;;;;5025954;28;20178;-82
2023/02/07 06:40:42;;;;;;;0.10;0.10;;;-0.90;99.90;;;;;;5026137;28;20693;-82
2023/02/07 06:43:07;;;;;;;0.10;0.10;;;-0.90;99.90;;;;;;5026178;28;20188;-80
2023/02/07 06:45:33;;;;;;;0.10;0.10;;;-0.80;99.90;;;;;;5025656;28;20185;-81
2023/02/07 06:47:58;;;;;;;0.10;0.10;;;-0.80;99.90;;;;;;5025606;28;20184;-81
2023/02/07 06:50:24;;;;;;;0.10;0.10;;;-0.90;99.90;;;;;;5025252;28;20210;-81
2023/02/07 06:52:49;;;;;;;0.10;0.10;;;-0.80;99.90;;;;;;5027859;28;20178;-80
2023/02/07 06:55:15;;;;;;;0.10;0.10;;;-0.90;99.90;;;;;;5023887;28;20232;-80
2023/02/07 06:57:40;;;;;;;1.33;1.33;;;-0.90;99.90;;;;;;5027259;28;20305;-81
2023/02/07 07:00:08;;;;;;;0.00;0.00;;;-0.90;99.90;;;;;;5024945;28;20261;-82
2023/02/07 07:02:34;;;;;;;0.10;0.10;;;-0.80;99.90;;;;;;5024647;28;20999;-80
2023/02/07 07:04:59;;;;;;;0.10;0.10;;;-0.80;99.90;;;;;;5023231;28;20178;-82
2023/02/07 07:07:25;;;;;;;0.07;0.07;;;-0.80;99.90;;;;;;5023802;28;20178;-81
2023/02/07 07:09:51;;;;;;;0.03;0.03;;;-0.80;99.90;;;;;;5026195;28;20603;-83
2023/02/07 07:12:16;;;;;;;0.10;0.10;;;-0.70;99.90;;;;;;5026709;28;20619;-82
2023/02/07 07:14:42;;;;;;;0.10;0.10;;;-0.60;99.90;;;;;;5022602;28;20186;-82
2023/02/07 07:17:07;;;;;;;0.10;0.10;;;-0.60;99.90;;;;;;5025085;28;20189;-81
2023/02/07 07:19:33;;;;;;;0.10;0.10;;;-0.60;99.90;;;;;;5022194;28;20608;-82
2023/02/07 07:21:58;;;;;;;0.10;0.10;;;-0.60;99.90;;;;;;5027102;28;20298;-80
2023/02/07 07:24:24;;;;;;;0.10;0.10;;;-0.60;99.90;;;;;;5026669;28;20266;-81
2023/02/07 07:26:50;;;;;;;0.10;0.10;;;-0.50;99.90;;;;;;5025192;28;20194;-82
2023/02/07 07:29:17;;;;;;;2.30;2.13;;;-0.50;99.90;;;;;;5024818;28;20174;-82
2023/02/07 07:31:42;;;;;;;0.10;0.10;;;-0.40;99.90;;;;;;5025079;28;20203;-81
2023/02/07 07:34:08;;;;;;;0.10;0.10;;;-0.40;99.90;;;;;;5025354;28;20204;-81
2023/02/07 07:36:33;;;;;;;0.10;0.10;;;-0.30;99.90;;;;;;5025740;28;20318;-81
2023/02/07 07:38:59;;;;;;;0.10;0.10;;;-0.20;99.90;;;;;;5023325;28;20203;-81
2023/02/07 07:41:24;;;;;;;0.10;0.10;;;-0.20;99.90;;;;;;5024984;28;20218;-80
2023/02/07 07:43:50;;;;;;;0.10;0.10;;;-0.20;99.90;;;;;;5024618;28;20266;-81
2023/02/07 07:46:15;;;;;;;0.10;0.10;;;-0.10;99.90;;;;;;5026654;28;20185;-82
2023/02/07 07:48:41;;;;;;;0.40;0.40;;;0.00;99.90;;;;;;5024233;28;20274;-80
2023/02/07 07:51:06;;;;;;;0.10;0.10;;;0.10;99.90;;;;;;5024498;28;20279;-82
2023/02/07 07:53:32;;;;;;;0.10;0.10;;;0.10;99.90;;;;;;5025545;28;20191;-82
2023/02/07 07:55:57;;;;;;;0.10;0.10;;;0.20;99.90;;;;;;5024663;28;20190;-82
2023/02/07 07:58:24;;;;;;;0.10;0.10;;;0.20;99.90;;;;;;5024536;28;20303;-82
2023/02/07 08:00:50;;;;;;;0.00;0.00;;;0.40;99.90;;;;;;5025866;28;20948;-81
2023/02/07 08:03:18;;;;;;;0.10;0.10;;;0.60;99.90;;;;;;5024264;28;20178;-81
2023/02/07 08:05:44;;;;;;;0.10;0.10;;;0.70;99.90;;;;;;5023936;28;20557;-81
2023/02/07 08:08:10;;;;;;;0.10;0.10;;;0.70;99.90;;;;;;5023636;28;20185;-81
2023/02/07 08:10:38;;;;;;;0.10;0.10;;;0.60;99.90;;;;;;5025115;28;20207;-80
2023/02/07 08:13:04;;;;;;;0.00;0.00;;;0.80;99.90;;;;;;5025070;28;20777;-80
2023/02/07 08:15:30;;;;;;;5.03;4.83;;;0.70;99.90;;;;;;5025416;28;20196;-81
2023/02/07 08:17:55;;;;;;;0.10;0.10;;;0.80;99.90;;;;;;5024408;28;21056;-81
2023/02/07 08:20:21;;;;;;;0.03;0.03;;;0.90;99.90;;;;;;5023545;28;20178;-82
2023/02/07 08:22:47;;;;;;;0.10;0.10;;;0.80;99.90;;;;;;5023440;28;20696;-82
2023/02/07 08:25:12;;;;;;;0.00;0.00;;;0.90;99.90;;;;;;5022800;28;20186;-81
2023/02/07 08:27:38;;;;;;;0.00;0.00;;;0.90;99.90;;;;;;5024801;28;20184;-81
2023/02/07 08:30:07;;;;;;;0.10;0.10;;;1.00;99.90;;;;;;5024527;28;20176;-82
2023/02/07 08:32:32;;;;;;;0.10;0.10;;;1.10;99.90;;;;;;5026449;28;20183;-81
2023/02/07 08:34:58;;;;;;;0.00;0.00;;;1.00;99.90;;;;;;5023485;28;20247;-82
2023/02/07 08:37:23;;;;;;;0.10;0.10;;;1.30;99.90;;;;;;5025746;28;20189;-80
2023/02/07 08:39:51;;;;;;;0.10;0.10;;;1.10;99.90;;;;;;5024954;28;20504;-81
2023/02/07 08:42:19;;;;;;;1.50;1.50;;;1.20;99.90;;;;;;5024179;28;20297;-81
2023/02/07 08:44:47;;;;;;;0.10;0.10;;;1.40;99.90;;;;;;5024620;28;20181;-81
2023/02/07 08:47:14;;;;;;;0.10;0.10;;;1.30;99.90;;;;;;5024277;28;20183;-80
2023/02/07 08:49:40;;;;;;;0.10;0.10;;;1.70;99.90;;;;;;5024352;28;20809;-81
2023/02/07 08:52:06;;;;;;;0.10;0.10;;;1.80;99.90;;;;;;5021632;28;20286;-81
2023/02/07 08:54:32;;;;;;;0.10;0.10;;;1.40;99.90;;;;;;5023388;28;20242;-81
2023/02/07 08:56:57;;;;;;;0.00;0.00;;;1.60;99.90;;;;;;5020976;28;20653;-81
2023/02/07 08:59:23;;;;;;;0.10;0.10;;;1.80;99.90;;;;;;5022320;28;20180;-82
2023/02/07 09:01:48;;;;;;;0.10;0.10;;;1.80;99.90;;;;;;5022990;28;20202;-81
2023/02/07 09:04:14;;;;;;;0.10;0.10;;;1.80;99.90;;;;;;5021363;28;20681;-83
2023/02/07 09:06:40;;;;;;;0.10;0.10;;;2.20;99.90;;;;;;5023704;28;20184;-82
2023/02/07 09:09:06;;;;;;;0.10;0.10;;;2.60;99.90;;;;;;5023638;28;20665;-82
2023/02/07 09:11:32;;;;;;;0.10;0.10;;;2.60;99.90;;;;;;5023459;28;20209;-82
2023/02/07 09:13:57;;;;;;;0.10;0.10;;;2.90;99.90;;;;;;5021162;28;20181;-81
2023/02/07 09:16:23;;;;;;;0.10;0.10;;;2.10;99.90;;;;;;5023296;28;20213;-81
2023/02/07 09:18:50;;;;;;;0.10;0.10;;;2.30;99.90;;;;;;5020586;28;20211;-82
2023/02/07 09:21:16;;;;;;;0.00;0.00;;;2.40;99.90;;;;;;5021319;28;20206;-82
2023/02/07 09:23:42;;;;;;;0.10;0.10;;;2.60;99.90;;;;;;5024911;28;20181;-81
2023/02/07 09:26:08;;;;;;;0.10;0.10;;;2.20;99.90;;;;;;5026608;28;20775;-80
2023/02/07 09:28:34;;;;;;;0.10;0.10;;;2.10;99.90;;;;;;5027629;28;20189;-82
2023/02/07 09:31:06;;;;;;;0.10;0.10;;;2.40;99.90;;;;;;5027154;28;20206;-81
2023/02/07 09:33:32;;;;;;;3.90;3.60;;;2.50;99.90;;;;;;5026865;28;20196;-82
2023/02/07 09:35:57;;;;;;;0.20;0.20;;;2.50;99.90;;;;;;5026763;28;20182;-82
2023/02/07 09:38:26;;;;;;;0.10;0.10;;;2.70;99.90;;;;;;5027466;28;20255;-82
2023/02/07 09:40:53;;;;;;;0.10;0.10;;;2.90;99.90;;;;;;5027857;28;20210;-82
2023/02/07 09:43:54;;;;;;;0.10;0.10;;;2.90;99.90;;;;;;5027108;28;20182;-81
2023/02/07 09:46:32;;;;;;;0.10;0.10;;;3.30;99.90;;;;;;5026581;28;20259;-82
2023/02/07 09:49:14;;;;;;;0.03;0.03;;;3.20;99.90;;;;;;5028347;28;20234;-82
2023/02/07 09:51:41;;;;;;;0.10;0.10;;;3.50;99.90;;;;;;5026537;28;20245;-82
2023/02/07 09:54:20;;;;;;;0.10;0.10;;;3.20;99.90;;;;;;5027123;28;20196;-83
2023/02/07 09:56:46;;;;;;;0.10;0.10;;;3.10;99.90;;;;;;5027284;28;20184;-83
2023/02/07 09:59:23;;;;;;;1.53;1.53;;;2.90;99.90;;;;;;5025750;28;20686;-81
2023/02/07 10:01:56;;;;;;;0.10;0.10;;;3.00;99.90;;;;;;5027078;28;20235;-81
2023/02/07 10:04:35;;;;;;;0.10;0.10;;;2.60;99.90;;;;;;5023368;28;20173;-81
2023/02/07 10:07:06;;;;;;;0.40;0.40;;;2.50;99.90;;;;;;5028526;28;20174;-82
2023/02/07 10:09:38;;;;;;;0.10;0.10;;;2.90;99.90;;;;;;5024673;28;20212;-82
2023/02/07 10:12:16;;;;;;;0.10;0.10;;;3.00;99.90;;;;;;5026154;28;20251;-82
2023/02/07 10:15:07;;;;;;;0.10;0.10;;;3.00;99.90;;;;;;5027316;28;20199;-82
2023/02/07 10:18:02;;;;;;;0.10;0.10;;;2.80;99.90;;;;;;5025849;28;20214;-80
2023/02/07 10:20:44;;;;;;;0.10;0.10;;;3.40;99.90;;;;;;5026627;28;20215;-82
2023/02/07 10:24:02;;;;;;;0.10;0.10;;;3.10;99.90;;;;;;5026914;28;20673;-81
2023/02/07 10:26:36;;;;;;;0.10;0.10;;;3.40;99.90;;;;;;5024101;28;20195;-81
2023/02/07 10:29:33;;;;;;;0.10;0.10;;;3.50;99.90;;;;;;5025569;28;20205;-81
2023/02/07 10:32:02;;;;;;;0.03;0.03;;;3.20;99.90;;;;;;5021595;28;20699;-82
2023/02/07 10:34:34;;;;;;;0.63;0.63;;;3.00;99.90;;;;;;5025644;28;20193;-82
2023/02/07 10:37:10;;;;;;;0.03;0.03;;;3.00;99.90;;;;;;5026075;28;20185;-82
2023/02/07 10:39:44;;;;;;;0.10;0.10;;;3.20;99.90;;;;;;5025886;28;20175;-82
2023/02/07 10:42:14;;;;;;;0.10;0.10;;;3.60;99.90;;;;;;5022859;28;20217;-82
2023/02/07 10:44:41;;;;;;;0.10;0.10;;;3.40;99.90;;;;;;5026376;28;20183;-81
2023/02/07 10:47:12;;;;;;;0.10;0.10;;;3.40;99.90;;;;;;5025489;28;20244;-82
2023/02/07 10:49:37;;;;;;;0.10;0.10;;;3.50;99.90;;;;;;5026254;28;20493;-83
2023/02/07 10:52:19;;;;;;;0.20;0.20;;;3.20;99.90;;;;;;5026064;28;20228;-82
2023/02/07 10:54:59;;;;;;;0.10;0.10;;;3.00;99.90;;;;;;5025256;28;20297;-83
2023/02/07 10:57:26;;;;;;;0.10;0.10;;;3.20;99.90;;;;;;5026710;28;20928;-83
2023/02/07 11:00:06;;;;;;;0.10;0.10;;;3.40;99.90;;;;;;5025155;28;20568;-81
2023/02/07 11:02:40;;;;;;;0.10;0.10;;;3.50;99.90;;;;;;5025014;28;20643;-82
2023/02/07 11:05:14;;;;;;;0.10;0.10;;;3.40;99.90;;;;;;5025473;28;20731;-82
2023/02/07 11:08:00;;;;;;;0.10;0.10;;;3.50;99.90;;;;;;5025364;28;20184;-82
2023/02/07 11:10:35;;;;;;;0.10;0.10;;;3.40;99.90;;;;;;5024880;28;20182;-82
2023/02/07 11:13:02;;;;;;;0.10;0.10;;;3.50;99.90;;;;;;5022596;28;20189;-81
2023/02/07 11:15:38;;;;;;;0.10;0.10;;;3.50;99.90;;;;;;5026266;28;20792;-81
2023/02/07 11:18:04;;;;;;;0.10;0.10;;;3.60;99.90;;;;;;5025322;28;20209;-81
2023/02/07 11:20:37;;;;;;;0.10;0.10;;;4.00;99.90;;;;;;5025286;28;21013;-81
2023/02/07 11:23:10;;;;;;;0.17;0.17;;;4.50;99.90;;;;;;5040459;28;20189;-81
2023/02/07 11:25:41;;;;;;;0.10;0.10;;;4.60;99.90;;;;;;5042257;28;20555;-81
2023/02/07 11:28:14;;;;;;;0.67;0.67;;;3.70;99.90;;;;;;5023927;28;20185;-82
2023/02/07 11:30:40;;;;;;;0.10;0.10;;;3.50;99.90;;;;;;5024722;28;20236;-82
2023/02/07 11:33:18;;;;;;;0.20;0.20;;;3.80;99.90;;;;;;5024146;28;20224;-82
2023/02/07 11:36:04;;;;;;;0.10;0.10;;;3.90;99.90;;;;;;5026142;28;20191;-81
2023/02/07 11:38:30;;;;;;;0.10;0.10;;;4.10;99.90;;;;;;5024856;28;20182;-82
2023/02/07 11:41:05;;;;;;;0.10;0.10;;;3.70;99.90;;;;;;5024370;28;20624;-82
2023/02/07 11:43:32;;;;;;;3.33;3.10;;;3.80;99.90;;;;;;5026129;28;20690;-83
2023/02/07 11:46:08;;;;;;;0.10;0.10;;;3.50;99.90;;;;;;5024939;28;20278;-81
2023/02/07 11:48:36;;;;;;;0.10;0.10;;;3.60;99.90;;;;;;5026007;28;20178;-81
2023/02/07 11:51:05;;;;;;;0.20;0.20;;;3.80;99.90;;;;;;5025266;28;20198;-81
2023/02/07 11:53:45;;;;;;;0.10;0.10;;;3.90;99.90;;;;;;5027378;28;20192;-82
2023/02/07 11:56:39;;;;;;;0.10;0.10;;;3.60;99.90;;;;;;5022248;28;20182;-83
2023/02/07 11:59:10;;;;;;;0.10;0.10;;;3.50;99.90;;;;;;5024730;28;20255;-80
2023/02/07 12:01:37;;;;;;;0.10;0.10;;;3.90;99.90;;;;;;5027083;28;20303;-81
2023/02/07 12:04:16;;;;;;;0.10;0.10;;;4.00;99.90;;;;;;5023126;28;20183;-81
2023/02/07 12:06:47;;;;;;;0.10;0.10;;;3.80;99.90;;;;;;5025327;28;20205;-81
2023/02/07 12:09:39;;;;;;;0.10;0.10;;;4.00;99.90;;;;;;5024645;28;20175;-81
2023/02/07 12:12:33;;;;;;;0.10;0.10;;;4.20;99.90;;;;;;5026984;28;20688;-81
2023/02/07 12:15:07;;;;;;;0.00;0.00;;;4.60;99.90;;;;;;5025689;28;20269;-81
2023/02/07 12:17:45;;;;;;;0.10;0.10;;;4.70;99.90;;;;;;5024077;28;20185;-80
2023/02/07 12:20:23;;;;;;;0.10;0.10;;;4.30;99.90;;;;;;5025035;28;20272;-80
2023/02/07 12:23:12;;;;;;;0.10;0.10;;;4.20;99.90;;;;;;5025763;28;20206;-82
2023/02/07 12:25:58;;;;;;;0.10;0.10;;;4.40;99.90;;;;;;5015911;28;20190;-81
2023/02/07 12:28:32;;;;;;;0.10;0.10;;;4.50;99.90;;;;;;5025863;28;20632;-81
2023/02/07 12:31:05;;;;;;;0.10;0.10;;;4.80;99.90;;;;;;5025165;28;20198;-80
2023/02/07 12:33:48;;;;;;;0.10;0.10;;;3.90;99.90;;;;;;5026090;28;20604;-81
2023/02/07 12:36:35;;;;;;;0.10;0.10;;;4.80;99.90;;;;;;5026963;28;20546;-81
2023/02/07 12:39:35;;;;;;;0.10;0.10;;;4.90;99.90;;;;;;5024752;28;20638;-81
2023/02/07 12:42:22;;;;;;;0.10;0.10;;;4.60;99.90;;;;;;5025833;28;20238;-82
2023/02/07 12:44:56;;;;;;;0.10;0.10;;;5.00;99.90;;;;;;5025851;28;20554;-82
2023/02/07 12:47:34;;;;;;;0.10;0.10;;;5.00;99.90;;;;;;5023088;28;20193;-81
2023/02/07 12:50:09;;;;;;;0.10;0.10;;;4.90;99.90;;;;;;5025246;28;20591;-81
2023/02/07 12:52:45;;;;;;;0.10;0.10;;;5.20;99.90;;;;;;5024672;28;20240;-81
2023/02/07 12:55:43;;;;;;;0.10;0.10;;;5.40;99.90;;;;;;5025806;28;20196;-80
2023/02/07 12:58:45;;;;;;;0.10;0.10;;;5.30;99.90;;;;;;5025675;28;20240;-80
2023/02/07 13:01:22;;;;;;;0.10;0.10;;;5.70;99.90;;;;;;5028301;28;20491;-82
2023/02/07 13:03:54;;;;;;;0.87;0.83;;;5.30;99.90;;;;;;5030647;28;20266;-81
2023/02/07 13:06:48;;;;;;;0.00;0.00;;;5.10;99.90;;;;;;5028996;28;20221;-83
2023/02/07 13:09:38;;;;;;;0.07;0.07;;;5.40;99.90;;;;;;5030503;28;20203;-83
2023/02/07 13:12:13;;;;;;;0.10;0.10;;;5.40;99.90;;;;;;5030480;28;20229;-81
2023/02/07 13:14:42;;;;;;;0.63;0.63;;;4.80;99.90;;;;;;5028303;28;20209;-81
2023/02/07 13:17:29;;;;;;;0.10;0.10;;;5.00;99.90;;;;;;5030097;28;20194;-82